Detalii statie AGROSTAR [00001CEF]

Toti senzorii

Date Temperatura solului [C]Precipitatii [mm]Voltaj baterie [mV]HC Air temperature [C]HC Relative humidity [%]Punctul de roua [C]
medieminmaxsumaultimamedieminmaxmediemediemin
2018-02-23 13:00:00 1.3 1.3 1.5 0 7284 4.28 3.74 5.02 50.33 -5.1 -5.7
2018-02-23 14:00:00 1.5 1.4 1.7 0 7284 5.56 4.87 6.37 46.99 -4.9 -5.8
2018-02-23 15:00:00 1.8 1.7 2.1 0 7264 5.37 4.97 5.75 49.22 -4.4 -4.9
2018-02-23 16:00:00 2.1 1.9 2.3 0 7226 4.93 4.43 5.63 50.45 -4.5 -4.9
2018-02-23 17:00:00 2.3 2.2 2.5 0 7108 4.08 3.76 4.51 55.45 -4 -4.5
2018-02-23 18:00:00 2.4 2.3 2.6 0 6982 3.43 3.27 3.66 59.35 -3.8 -4.2
2018-02-23 19:00:00 2.5 2.4 2.6 0 6922 2.59 1.59 3.16 66.98 -3 -3.8
2018-02-23 20:00:00 2.5 2.3 2.6 0 6874 0.94 0.55 1.41 87.24 -0.9 -1.6
2018-02-23 21:00:00 2.5 2.5 2.6 0 6864 0.29 0.16 0.5 92.6 -0.7 -0.8
2018-02-23 22:00:00 2.4 2.3 2.5 0 6844 0.12 0.04 0.19 95.74 -0.5 -0.6
2018-02-23 23:00:00 2.3 2.3 2.5 0 6834 0.03 0 0.07 97.26 -0.3 -0.5
2018-02-24 00:00:00 2.2 2.1 2.4 0 6834 0.01 -0.04 0.06 98.62 -0.1 -0.3
2018-02-24 01:00:00 2.1 2 2.3 0 6816 0.02 -0.03 0.1 99.63 0 0
2018-02-24 02:00:00 2.1 2 2.2 0 6816 -0.01 -0.07 0.06 100 0 0
2018-02-24 03:00:00 2 2 2.1 0 6806 0 -0.04 0.05 100 0 0
2018-02-24 04:00:00 1.9 1.8 2 0.2 6796 -0.06 -0.13 -0.02 100 0 0
2018-02-24 05:00:00 1.9 1.8 2 0 6786 -0.1 -0.17 -0.04 100 0 0
2018-02-24 06:00:00 1.9 1.8 2 0 6786 -0.35 -0.45 -0.19 100 -0.1 -0.3
2018-02-24 07:00:00 1.8 1.8 1.9 0 6786 -0.79 -1.33 -0.43 100 -0.6 -1.2
2018-02-24 08:00:00 1.8 1.7 1.9 0 6786 -1.51 -1.61 -1.41 90.53 -2.8 -4.1
2018-02-24 09:00:00 1.7 1.7 2 0 6786 -1.5 -1.71 -1.28 79.62 -4.5 -4.8
2018-02-24 10:00:00 1.6 1.6 1.8 0 7020 -0.89 -1.24 -0.37 73.36 -4.9 -5.4
2018-02-24 11:00:00 1.6 1.4 1.7 0 7294 0.06 -0.44 0.96 64.5 -5.8 -6.4
2018-02-24 12:00:00 1.6 1.6 1.7 1.6 7294 1.18 0.4 2.25 55.52 -6.8 -7.9
2018-02-24 13:00:00 1.7 1.6 1.9 0.6 7294 1.97 1.18 2.44 49.59 -7.5 -8.8
2018-02-24 14:00:00 1.9 1.8 2.1 0 7284 2.73 2.38 3.21 44.42 -8.2 -9.4
2018-02-24 15:00:00 2.1 2 2.3 0 7254 1.34 0.82 2.08 48.03 -8.5 -9.9
2018-02-24 16:00:00 2.3 2.3 2.4 0 7264 0.38 0.13 0.7 65.05 -5.4 -6.1
2018-02-24 17:00:00 2.3 2.3 2.5 0 7246 0.67 0.28 1.11 50.18 -8.5 -9.8
2018-02-24 18:00:00 2.3 2.3 2.5 0 7050 -1.22 -2 0.18 53.54 -9.4 -9.9
2018-02-24 19:00:00 2.4 2.2 2.5 0 6962 -2.72 -3.38 -2.07 55.04 -10.4 -11.1
2018-02-24 20:00:00 2.3 2.3 2.4 0 6904 -3.73 -3.93 -3.44 55.04 -11.3 -11.9
2018-02-24 21:00:00 2.1 2 2.3 0 6874 -4.12 -4.26 -4 53.59 -12 -12.5
2018-02-24 22:00:00 2 1.9 2.2 0 6854 -4.44 -4.6 -4.3 52.78 -12.6 -13
2018-02-24 23:00:00 1.9 1.8 2 0 6834 -4.75 -4.93 -4.62 52.26 -12.9 -13.3
2018-02-25 00:00:00 1.8 1.6 1.9 0 6826 -5.25 -5.55 -5 53.95 -13 -13.4
2018-02-25 01:00:00 1.6 1.5 1.8 0 6816 -5.81 -6.11 -5.56 59.21 -12.4 -12.8
2018-02-25 02:00:00 1.5 1.4 1.7 0 6806 -6.45 -6.78 -6.2 60.62 -12.7 -13
2018-02-25 03:00:00 1.5 1.4 1.6 0 6786 -7.2 -7.49 -6.86 64.4 -12.6 -13.5
2018-02-25 04:00:00 1.4 1.3 1.5 0 6776 -7.68 -7.85 -7.54 58.78 -14.2 -14.9
2018-02-25 05:00:00 1.3 1.2 1.5 0 6766 -7.9 -8.02 -7.81 56.66 -14.9 -15.3
2018-02-25 06:00:00 1.2 1.2 1.4 0 6766 -7.98 -8.02 -7.94 55.92 -15.1 -15.5
2018-02-25 07:00:00 1.1 1.1 1.3 0 6756 -8.16 -8.32 -8.01 57.62 -14.9 -15.6
2018-02-25 08:00:00 1.1 0.9 1.2 0 6766 -8.08 -8.19 -7.87 52.58 -15.9 -16.5
2018-02-25 09:00:00 1.1 1 1.2 0 7040 -7.11 -7.71 -6.71 47.31 -16.3 -16.6
2018-02-25 10:00:00 1 0.9 1.1 0 7314 -6.31 -6.99 -5.88 43.61 -16.6 -17.2
2018-02-25 11:00:00 0.9 0.9 1.1 0 7304 -4.95 -6.16 -3.55 38.58 -16.8 -17.4
2018-02-25 12:00:00 0.9 0.8 1 0 7294 -3.16 -4.05 -2.61 34.73 -16.5 -17.3